SBPK/PET METAR and TAF weather

Enter ICAO airport designator
Station Type Date Time Source
SBPK METAR 2019/04/25 18:00 UTC NOAA

SBPK 251800Z 12007KT 9999 BKN030 OVC100 21/18 Q1021


Station Type Date Time Source
SBPK Decoded METAR 2019/04/25 18:00 UTC NOAA

Pelotas, Brazil (SBPK) 31-52S 052-21W 13M
Apr 25, 2019 - 02:00 PM EDT / 2019.04.25 1800 UTC
Wind: from the ESE (120 degrees) at 8 MPH (7 KT):0
Visibility: greater than 7 mile(s):0
Sky conditions: overcast
Temperature: 69 F (21 C)
Dew Point: 64 F (18 C)
Relative Humidity: 82%
Pressure (altimeter): 30.15 in. Hg (1021 hPa)
ob: SBPK 251800Z 12007KT 9999 BKN030 OVC100 21/18 Q1021
cycle: 18

Station Type Date Time Source
SBPK TAF 2019/04/25 18:55 UTC NOAA

TAF SBPK 251530Z 2518/2618 12010KT 9999 BKN020 TX21/2518Z TN17/2609Z
TEMPO 2518/2522 09015KT 8000 TSRA BKN010 FEW030CB
BECMG 2522/2524 08010KT 8000 RA BKN005
BECMG 2615/2617 18007KT 9999 NSW SCT020
RMK PCO

Example: see airport list